createdAt,value
2018-05-07T00:01:07.279Z,97832.59
2018-05-07T00:03:34.820Z,97833.58
2018-05-07T00:06:02.381Z,97822.63
2018-05-07T00:08:30.089Z,97832.86
2018-05-07T00:10:57.761Z,97828.45
2018-05-07T00:13:25.231Z,97822.36
2018-05-07T00:15:52.745Z,97825.94
2018-05-07T00:18:20.290Z,97820.89
2018-05-07T00:20:47.809Z,97824.00
2018-05-07T00:23:15.327Z,97824.88
2018-05-07T00:25:42.916Z,97821.23
2018-05-07T00:28:10.521Z,97820.66
2018-05-07T00:30:38.054Z,97811.59
2018-05-07T00:33:05.595Z,97814.93
2018-05-07T00:35:33.144Z,97816.23
2018-05-07T00:38:00.659Z,97812.38
2018-05-07T00:40:28.199Z,97813.47
2018-05-07T00:42:55.702Z,97810.05
2018-05-07T00:45:23.229Z,97807.64
2018-05-07T00:47:50.744Z,97809.68
2018-05-07T00:50:18.289Z,97810.16
2018-05-07T00:52:45.829Z,97809.41
2018-05-07T00:55:22.097Z,97808.21
2018-05-07T00:57:49.629Z,97816.05
2018-05-07T01:00:17.124Z,97820.94
2018-05-07T01:02:44.633Z,97816.67
2018-05-07T01:05:12.149Z,97812.17
2018-05-07T01:07:39.653Z,97818.52
2018-05-07T01:10:07.225Z,97811.20
2018-05-07T01:12:34.803Z,97814.22
2018-05-07T01:15:02.357Z,97821.26
2018-05-07T01:17:29.878Z,97819.32
2018-05-07T01:19:57.441Z,97818.86
2018-05-07T01:22:24.982Z,97819.23
2018-05-07T01:24:52.481Z,97819.70
2018-05-07T01:27:19.986Z,97820.69
2018-05-07T01:29:47.524Z,97817.33
2018-05-07T01:32:15.037Z,97823.48
2018-05-07T01:34:42.619Z,97830.02
2018-05-07T01:37:10.121Z,97829.58
2018-05-07T01:39:37.661Z,97804.70
2018-05-07T01:42:05.250Z,97821.59
2018-05-07T01:44:32.806Z,97812.30
2018-05-07T01:47:00.363Z,97813.42
2018-05-07T01:49:27.893Z,97802.66
2018-05-07T01:51:55.489Z,97809.48
2018-05-07T01:54:23.049Z,97802.59
2018-05-07T01:56:50.587Z,97799.36
2018-05-07T01:59:18.192Z,97814.47
2018-05-07T02:01:45.789Z,97816.73
2018-05-07T02:04:13.309Z,97811.30
2018-05-07T02:06:40.981Z,97810.79
2018-05-07T02:09:08.501Z,97813.41
2018-05-07T02:11:36.056Z,97812.91
2018-05-07T02:14:03.591Z,97782.03
2018-05-07T02:16:31.103Z,97803.77
2018-05-07T02:18:58.705Z,97807.74
2018-05-07T02:21:26.201Z,97807.19
2018-05-07T02:23:53.752Z,97808.68
2018-05-07T02:26:21.292Z,97806.37
2018-05-07T02:28:48.833Z,97802.04
2018-05-07T02:31:16.474Z,97803.97
2018-05-07T02:33:44.001Z,97802.70
2018-05-07T02:36:11.576Z,97804.61
2018-05-07T02:38:39.137Z,97804.16
2018-05-07T02:41:06.637Z,97805.44
2018-05-07T02:43:34.194Z,97799.64
2018-05-07T02:46:01.739Z,97795.24
2018-05-07T02:48:29.298Z,97803.61
2018-05-07T02:50:56.795Z,97800.44
2018-05-07T02:53:24.315Z,97802.48
2018-05-07T02:55:51.845Z,97798.26
2018-05-07T02:58:19.358Z,97797.00
2018-05-07T03:00:47.003Z,97801.47
2018-05-07T03:03:14.506Z,97797.89
2018-05-07T03:05:42.022Z,97796.73
2018-05-07T03:08:09.549Z,97793.93
2018-05-07T03:10:37.096Z,97801.05
2018-05-07T03:13:04.642Z,97789.91
2018-05-07T03:15:32.186Z,97797.73
2018-05-07T03:17:59.754Z,97796.81
2018-05-07T03:20:27.293Z,97795.71
2018-05-07T03:22:54.812Z,97793.34
2018-05-07T03:25:22.387Z,97791.64
2018-05-07T03:27:49.909Z,97794.75
2018-05-07T03:30:17.407Z,97795.05
2018-05-07T03:32:44.982Z,97791.72
2018-05-07T03:35:12.487Z,97791.05
2018-05-07T03:37:40.082Z,97791.39
2018-05-07T03:40:07.577Z,97789.91
2018-05-07T03:42:35.091Z,97792.05
2018-05-07T03:45:02.691Z,97789.91
2018-05-07T03:47:30.258Z,97789.35
2018-05-07T03:49:57.800Z,97792.20
2018-05-07T03:52:25.315Z,97788.98
2018-05-07T03:54:52.822Z,97779.73
2018-05-07T03:57:20.370Z,97791.91
2018-05-07T03:59:47.970Z,97792.94
2018-05-07T04:02:15.850Z,97794.21
2018-05-07T04:04:44.417Z,97782.52
2018-05-07T04:07:12.855Z,97792.95
2018-05-07T04:09:40.437Z,97788.84
2018-05-07T04:12:08.012Z,97787.23
2018-05-07T04:14:35.656Z,97782.08
2018-05-07T04:17:14.920Z,97774.27
2018-05-07T04:19:54.225Z,97777.09
2018-05-07T04:22:33.494Z,97776.20
2018-05-07T04:25:01.005Z,97778.35
2018-05-07T04:27:28.511Z,97783.49
2018-05-07T04:29:56.119Z,97780.17
2018-05-07T04:32:23.654Z,97784.16
2018-05-07T04:34:51.195Z,97778.80
2018-05-07T04:37:18.751Z,97778.53
2018-05-07T04:39:46.253Z,97779.05
2018-05-07T04:42:13.801Z,97771.70
2018-05-07T04:44:41.372Z,97776.50
2018-05-07T04:47:08.890Z,97779.38
2018-05-07T04:49:37.281Z,97784.31
2018-05-07T04:52:04.861Z,97789.09
2018-05-07T04:54:32.445Z,97780.72
2018-05-07T04:56:59.981Z,97786.72
2018-05-07T04:59:27.477Z,97788.22
2018-05-07T05:01:55.046Z,97725.13
2018-05-07T05:04:22.605Z,97791.33
2018-05-07T05:06:50.233Z,97788.05
2018-05-07T05:09:17.813Z,97779.00
2018-05-07T05:11:45.392Z,97775.33
2018-05-07T05:14:12.942Z,97771.42
2018-05-07T05:16:40.493Z,97765.59
2018-05-07T05:19:08.130Z,97767.53
2018-05-07T05:21:35.675Z,97773.79
2018-05-07T05:24:03.195Z,97776.28
2018-05-07T05:26:30.782Z,97773.04
2018-05-07T05:28:58.402Z,97779.28
2018-05-07T05:31:25.965Z,97770.04
2018-05-07T05:33:53.533Z,97766.09
2018-05-07T05:36:21.118Z,97762.49
2018-05-07T05:38:48.690Z,97766.86
2018-05-07T05:41:16.295Z,97765.13
2018-05-07T05:43:44.007Z,97767.82
2018-05-07T05:46:11.482Z,97769.73
2018-05-07T05:48:39.044Z,97762.05
2018-05-07T05:51:06.559Z,97763.78
2018-05-07T05:53:34.102Z,97762.13
2018-05-07T05:56:01.659Z,97757.77
2018-05-07T05:58:29.267Z,97755.11
2018-05-07T06:00:56.810Z,97760.09
2018-05-07T06:03:24.471Z,97761.88
2018-05-07T06:05:51.995Z,97760.04
2018-05-07T06:08:19.547Z,97757.28
2018-05-07T06:10:47.140Z,97755.32
2018-05-07T06:13:14.685Z,97752.76
2018-05-07T06:15:42.223Z,97748.86
2018-05-07T06:18:09.809Z,97752.77
2018-05-07T06:20:37.436Z,97750.73
2018-05-07T06:23:04.987Z,97747.17
2018-05-07T06:25:32.573Z,97754.97
2018-05-07T06:28:00.124Z,97759.95
2018-05-07T06:30:27.744Z,97752.53
2018-05-07T06:35:58.028Z,97753.13
2018-05-07T06:38:25.552Z,97759.30
2018-05-07T06:40:53.283Z,97754.87
2018-05-07T06:43:21.042Z,97755.52
2018-05-07T06:45:48.934Z,97761.52
2018-05-07T06:48:16.748Z,97756.56
2018-05-07T06:50:44.473Z,97763.98
2018-05-07T06:53:12.194Z,97755.12
2018-05-07T06:55:39.903Z,97756.77
2018-05-07T06:58:07.587Z,97763.02
2018-05-07T07:00:35.308Z,97747.71
2018-05-07T07:03:03.207Z,97757.16
2018-05-07T07:05:30.928Z,97754.34
2018-05-07T07:07:58.634Z,97743.73
2018-05-07T07:10:26.408Z,97742.86
2018-05-07T07:12:54.140Z,97745.11
2018-05-07T07:15:22.731Z,97735.30
2018-05-07T07:17:50.471Z,97727.19
2018-05-07T07:20:18.283Z,97725.34
2018-05-07T07:22:46.003Z,97717.45
2018-05-07T07:25:13.845Z,97729.46
2018-05-07T07:27:41.645Z,97728.06
2018-05-07T07:30:09.435Z,97725.20
2018-05-07T07:32:37.173Z,97742.95
2018-05-07T07:35:04.883Z,97727.42
2018-05-07T07:37:32.560Z,97731.26
2018-05-07T07:40:00.385Z,97721.08
2018-05-07T07:42:28.073Z,97672.53
2018-05-07T07:44:55.780Z,97728.66
2018-05-07T07:47:23.482Z,97724.76
2018-05-07T07:49:51.115Z,97727.45
2018-05-07T07:52:18.832Z,97714.94
2018-05-07T07:54:46.578Z,97723.08
2018-05-07T07:57:14.427Z,97722.59
2018-05-07T07:59:42.075Z,97718.12
2018-05-07T08:02:09.764Z,97715.20
2018-05-07T08:04:37.481Z,97719.29
2018-05-07T08:07:05.152Z,97712.08
2018-05-07T08:09:32.855Z,97719.73
2018-05-07T08:12:00.587Z,97733.04
2018-05-07T08:14:28.443Z,97722.94
2018-05-07T08:16:56.215Z,97716.14
2018-05-07T08:19:23.961Z,97711.42
2018-05-07T08:21:51.690Z,97717.66
2018-05-07T08:24:19.409Z,97717.41
2018-05-07T08:26:47.110Z,97722.34
2018-05-07T08:29:14.840Z,97708.73
2018-05-07T08:31:42.553Z,97708.84
2018-05-07T08:34:10.303Z,97709.09
2018-05-07T08:36:37.995Z,97702.01
2018-05-07T08:39:05.866Z,97697.30
2018-05-07T08:41:33.542Z,97698.48
2018-05-07T08:44:01.265Z,97688.09
2018-05-07T08:46:29.023Z,97689.44
2018-05-07T08:48:56.715Z,97695.96
2018-05-07T08:51:24.702Z,97693.65
2018-05-07T08:53:52.419Z,97689.23
2018-05-07T08:56:20.174Z,97695.38
2018-05-07T08:58:48.046Z,97694.81
2018-05-07T09:01:15.787Z,97698.03
2018-05-07T09:03:43.532Z,97686.84
2018-05-07T09:06:11.241Z,97687.94
2018-05-07T09:08:39.009Z,97693.34
2018-05-07T09:11:06.885Z,97692.48
2018-05-07T09:13:34.677Z,97690.81
2018-05-07T09:16:02.466Z,97685.33
2018-05-07T09:18:30.175Z,97686.30
2018-05-07T09:20:57.968Z,97683.53
2018-05-07T09:23:25.688Z,97672.86
2018-05-07T09:25:53.415Z,97680.27
2018-05-07T09:28:21.121Z,97634.84
2018-05-07T09:30:48.957Z,97671.91
2018-05-07T09:33:16.672Z,97673.07
2018-05-07T09:35:44.345Z,97668.84
2018-05-07T09:38:12.053Z,97674.85
2018-05-07T09:40:39.745Z,97665.92
2018-05-07T09:43:07.544Z,97673.77
2018-05-07T09:45:35.256Z,97662.70
2018-05-07T09:48:02.950Z,97657.83
2018-05-07T09:50:30.628Z,97660.11
2018-05-07T09:52:58.263Z,97667.38
2018-05-07T09:55:26.037Z,97651.83
2018-05-07T09:58:06.479Z,97650.36
2018-05-07T10:00:37.737Z,97655.30
2018-05-07T10:03:05.451Z,97654.75
2018-05-07T10:05:33.971Z,97639.98
2018-05-07T10:08:01.776Z,97615.80
2018-05-07T10:10:29.495Z,97645.33
2018-05-07T10:12:57.215Z,97643.30
2018-05-07T10:15:24.915Z,97637.64
2018-05-07T10:17:52.754Z,97646.80
2018-05-07T10:20:20.590Z,97634.38
2018-05-07T10:22:48.111Z,97635.05
2018-05-07T10:25:15.639Z,97632.19
2018-05-07T10:27:43.133Z,97636.80
2018-05-07T10:30:10.627Z,97635.70
2018-05-07T10:32:38.144Z,97621.81
2018-05-07T10:35:05.663Z,97636.31
2018-05-07T10:37:33.226Z,97631.58
2018-05-07T10:40:00.736Z,97617.46
2018-05-07T10:42:28.261Z,97617.42
2018-05-07T10:44:55.794Z,97619.95
2018-05-07T10:47:23.314Z,97606.98
2018-05-07T10:49:50.874Z,97622.02
2018-05-07T10:52:18.382Z,97608.28
2018-05-07T10:54:45.912Z,97603.19
2018-05-07T10:57:13.591Z,97589.14
2018-05-07T10:59:41.126Z,97585.22
2018-05-07T11:02:08.695Z,97589.52
2018-05-07T11:04:36.203Z,97608.16
2018-05-07T11:07:03.752Z,97588.61
2018-05-07T11:09:31.292Z,97571.23
2018-05-07T11:11:58.817Z,97593.84
2018-05-07T11:14:26.368Z,97584.42
2018-05-07T11:16:54.784Z,97587.31
2018-05-07T11:19:22.284Z,97579.66
2018-05-07T11:21:49.807Z,97576.08
2018-05-07T11:24:17.294Z,97587.19
2018-05-07T11:26:44.804Z,97574.06
2018-05-07T11:29:12.305Z,97582.27
2018-05-07T11:31:39.855Z,97576.41
2018-05-07T11:34:07.477Z,97578.30
2018-05-07T11:36:35.010Z,97565.91
2018-05-07T11:39:02.625Z,97566.73
2018-05-07T11:41:30.081Z,97559.84
2018-05-07T11:43:57.599Z,97547.23
2018-05-07T11:46:25.105Z,97544.23
2018-05-07T11:48:53.533Z,97545.67
2018-05-07T11:51:21.123Z,97529.36
2018-05-07T11:53:48.667Z,97537.66
2018-05-07T11:56:16.161Z,97547.98
2018-05-07T11:58:43.762Z,97541.15
2018-05-07T12:01:11.281Z,97528.84
2018-05-07T12:03:38.801Z,97539.91
2018-05-07T12:06:06.295Z,97519.36
2018-05-07T12:08:33.789Z,97518.62
2018-05-07T12:11:01.329Z,97523.58
2018-05-07T12:13:28.863Z,97523.24
2018-05-07T12:15:56.445Z,97503.39
2018-05-07T12:18:23.951Z,97517.27
2018-05-07T12:20:51.482Z,97514.23
2018-05-07T12:23:19.099Z,97525.70
2018-05-07T12:25:46.609Z,97524.44
2018-05-07T12:28:14.138Z,97513.80
2018-05-07T12:30:41.662Z,97503.15
2018-05-07T12:33:09.226Z,97500.84
2018-05-07T12:35:36.745Z,97503.78
2018-05-07T12:38:04.256Z,97490.76
2018-05-07T12:40:31.850Z,97466.50
2018-05-07T12:42:59.409Z,97483.42
2018-05-07T12:45:26.942Z,97486.30
2018-05-07T12:47:54.494Z,97482.00
2018-05-07T12:50:22.003Z,97485.23
2018-05-07T12:52:49.562Z,97487.34
2018-05-07T12:55:17.082Z,97489.84
2018-05-07T12:57:44.674Z,97493.94
2018-05-07T13:00:12.267Z,97467.14
2018-05-07T13:02:39.780Z,97487.85
2018-05-07T13:05:07.322Z,97482.50
2018-05-07T13:07:34.916Z,97480.13
2018-05-07T13:10:02.475Z,97485.73
2018-05-07T13:12:30.059Z,97472.61
2018-05-07T13:14:57.601Z,97476.14
2018-05-07T13:17:25.121Z,97476.38
2018-05-07T13:19:52.659Z,97472.90
2018-05-07T13:22:20.275Z,97473.11
2018-05-07T13:24:47.900Z,97466.53
2018-05-07T13:27:15.413Z,97470.23
2018-05-07T13:29:43.039Z,97468.91
2018-05-07T13:32:10.574Z,97465.20
2018-05-07T13:34:38.113Z,97465.63
2018-05-07T13:37:05.615Z,97449.70
2018-05-07T13:39:33.218Z,97453.07
2018-05-07T13:42:00.735Z,97454.35
2018-05-07T13:44:28.246Z,97448.55
2018-05-07T13:46:55.839Z,97453.73
2018-05-07T13:49:23.383Z,97441.22
2018-05-07T13:51:50.927Z,97430.17
2018-05-07T13:54:18.559Z,97438.80
2018-05-07T13:56:46.175Z,97436.84
2018-05-07T13:59:13.684Z,97433.95
2018-05-07T14:01:41.189Z,97422.20
2018-05-07T14:04:08.689Z,97427.86
2018-05-07T14:06:36.258Z,97424.19
2018-05-07T14:09:03.829Z,97418.78
2018-05-07T14:11:31.398Z,97413.03
2018-05-07T14:13:58.909Z,97415.50
2018-05-07T14:16:26.406Z,97403.20
2018-05-07T14:18:53.928Z,97395.61
2018-05-07T14:21:21.414Z,97394.89
2018-05-07T14:23:48.967Z,97390.39
2018-05-07T14:26:17.495Z,97389.21
2018-05-07T14:28:44.961Z,97381.03
2018-05-07T14:31:12.469Z,97384.63
2018-05-07T14:33:39.965Z,97375.45
2018-05-07T14:36:07.469Z,97370.73
2018-05-07T14:38:34.962Z,97368.47
2018-05-07T14:41:02.506Z,97363.03
2018-05-07T14:43:30.063Z,97351.76
2018-05-07T14:45:57.566Z,97342.53
2018-05-07T14:48:25.076Z,97347.71
2018-05-07T14:50:52.562Z,97349.95
2018-05-07T14:53:21.026Z,97346.20
2018-05-07T14:55:48.561Z,97326.16
2018-05-07T14:58:16.112Z,97335.39
2018-05-07T15:00:43.576Z,97332.56
2018-05-07T15:03:11.070Z,97337.33
2018-05-07T15:05:38.703Z,97327.72
2018-05-07T15:08:06.208Z,97327.42
2018-05-07T15:10:33.741Z,97322.23
2018-05-07T15:13:01.283Z,97305.95
2018-05-07T15:15:28.848Z,97319.14
2018-05-07T15:17:56.417Z,97314.84
2018-05-07T15:20:23.975Z,97312.29
2018-05-07T15:22:51.610Z,97310.08
2018-05-07T15:25:19.171Z,97306.34
2018-05-07T15:27:46.759Z,97306.60
2018-05-07T15:30:14.345Z,97306.48
2018-05-07T15:32:41.882Z,97302.66
2018-05-07T15:35:09.435Z,97303.44
2018-05-07T15:37:36.978Z,97301.73
2018-05-07T15:40:04.551Z,97282.70
2018-05-07T15:42:32.083Z,97271.36
2018-05-07T15:44:59.661Z,97290.98
2018-05-07T15:47:27.154Z,97284.39
2018-05-07T15:49:54.678Z,97266.20
2018-05-07T15:52:22.180Z,97300.17
2018-05-07T15:54:49.707Z,97282.22
2018-05-07T15:57:17.230Z,97285.06
2018-05-07T15:59:44.765Z,97269.70
2018-05-07T16:02:12.319Z,97270.98
2018-05-07T16:04:39.816Z,97265.72
2018-05-07T16:07:07.363Z,97266.31
2018-05-07T16:09:34.913Z,97260.16
2018-05-07T16:12:02.416Z,97257.91
2018-05-07T16:14:29.978Z,97264.37
2018-05-07T16:16:57.475Z,97258.89
2018-05-07T16:19:24.998Z,97250.72
2018-05-07T16:21:52.552Z,97254.53
2018-05-07T16:24:20.103Z,97251.20
2018-05-07T16:26:47.599Z,97248.45
2018-05-07T16:29:15.104Z,97248.09
2018-05-07T16:31:42.614Z,97248.74
2018-05-07T16:34:10.175Z,97249.13
2018-05-07T16:36:37.733Z,97243.98
2018-05-07T16:39:06.179Z,97247.00
2018-05-07T16:41:34.661Z,97252.94
2018-05-07T16:44:02.220Z,97249.87
2018-05-07T16:46:29.741Z,97255.03
2018-05-07T16:48:57.341Z,97244.42
2018-05-07T16:51:25.201Z,97252.95
2018-05-07T16:53:52.742Z,97249.45
2018-05-07T16:56:20.261Z,97240.47
2018-05-07T16:58:47.784Z,97249.45
2018-05-07T17:01:15.314Z,97257.99
2018-05-07T17:03:42.892Z,97245.06
2018-05-07T17:06:10.420Z,97238.21
2018-05-07T17:08:37.930Z,97246.75
2018-05-07T17:11:05.527Z,97240.66
2018-05-07T17:13:33.398Z,97242.33
2018-05-07T17:16:00.924Z,97239.78
2018-05-07T17:18:28.470Z,97242.70
2018-05-07T17:20:56.001Z,97252.07
2018-05-07T17:23:23.495Z,97247.35
2018-05-07T17:25:51.002Z,97247.72
2018-05-07T17:28:18.495Z,97246.74
2018-05-07T17:30:46.023Z,97248.87
2018-05-07T17:33:13.519Z,97241.52
2018-05-07T17:35:41.014Z,97247.06
2018-05-07T17:38:08.532Z,97241.30
2018-05-07T17:40:36.018Z,97245.12
2018-05-07T17:43:03.538Z,97225.53
2018-05-07T17:45:42.963Z,97251.19
2018-05-07T17:48:22.312Z,97246.30
2018-05-07T17:50:49.882Z,97252.64
2018-05-07T17:53:17.365Z,97246.88
2018-05-07T17:55:44.874Z,97256.55
2018-05-07T17:58:12.349Z,97260.28
2018-05-07T18:00:39.873Z,97260.86
2018-05-07T18:03:07.355Z,97269.66
2018-05-07T18:05:34.850Z,97267.27
2018-05-07T18:08:02.360Z,97269.59
2018-05-07T18:10:29.925Z,97273.61
2018-05-07T18:12:57.387Z,97270.33
2018-05-07T18:15:24.887Z,97267.16
2018-05-07T18:17:52.376Z,97275.49
2018-05-07T18:20:19.884Z,97274.95
2018-05-07T18:22:47.375Z,97271.03
2018-05-07T18:25:14.900Z,97272.00
2018-05-07T18:27:42.390Z,97272.33
2018-05-07T18:30:09.897Z,97269.47
2018-05-07T18:32:37.478Z,97278.94
2018-05-07T18:35:05.013Z,97278.39
2018-05-07T18:37:32.562Z,97283.66
2018-05-07T18:40:00.368Z,97281.76
2018-05-07T18:42:27.973Z,97282.91
2018-05-07T18:44:55.668Z,97283.22
2018-05-07T18:47:23.327Z,97269.97
2018-05-07T18:49:51.068Z,97294.09
2018-05-07T18:52:18.657Z,97298.67
2018-05-07T18:54:46.210Z,97088.84
2018-05-07T18:57:13.801Z,97297.42
2018-05-07T18:59:41.301Z,97300.65
2018-05-07T19:02:08.958Z,97305.83
2018-05-07T19:04:36.543Z,97302.27
2018-05-07T19:07:04.130Z,97310.14
2018-05-07T19:09:31.743Z,97299.52
2018-05-07T19:11:59.293Z,97310.15
2018-05-07T19:14:27.057Z,97306.28
2018-05-07T19:16:54.737Z,97308.38
2018-05-07T19:19:22.326Z,97314.41
2018-05-07T19:21:49.974Z,97313.39
2018-05-07T19:24:17.473Z,97314.73
2018-05-07T19:26:45.074Z,97323.09
2018-05-07T19:29:12.560Z,97322.55
2018-05-07T19:31:40.141Z,97322.66
2018-05-07T19:34:07.714Z,97327.81
2018-05-07T19:36:42.118Z,97328.84
2018-05-07T19:42:02.924Z,97331.35
2018-05-07T19:44:30.437Z,97332.97
2018-05-07T19:46:57.969Z,97334.13
2018-05-07T19:49:25.462Z,97330.69
2018-05-07T19:51:52.971Z,97324.86
2018-05-07T19:54:20.522Z,97333.06
2018-05-07T19:56:48.060Z,97322.44
2018-05-07T19:59:15.617Z,97326.91
2018-05-07T20:01:43.117Z,97326.11
2018-05-07T20:04:10.613Z,97322.34
2018-05-07T20:06:38.134Z,97324.66
2018-05-07T20:09:05.638Z,97329.52
2018-05-07T20:11:33.157Z,97327.15
2018-05-07T20:14:00.657Z,97321.11
2018-05-07T20:16:29.175Z,97320.49
2018-05-07T20:18:56.703Z,97320.28
2018-05-07T20:21:24.208Z,97323.44
2018-05-07T20:23:51.725Z,97318.06
2018-05-07T20:26:19.209Z,97318.19
2018-05-07T20:28:46.697Z,97315.86
2018-05-07T20:31:14.244Z,97315.40
2018-05-07T20:33:41.797Z,97323.22
2018-05-07T20:36:09.343Z,97317.66
2018-05-07T20:38:36.855Z,97320.23
2018-05-07T20:41:04.389Z,97313.27
2018-05-07T20:43:31.924Z,97284.88
2018-05-07T20:45:59.467Z,97319.30
2018-05-07T20:48:27.048Z,97319.42
2018-05-07T20:50:54.590Z,97315.59
2018-05-07T20:53:22.109Z,97321.27
2018-05-07T20:55:49.601Z,97322.03
2018-05-07T20:58:17.169Z,97317.30
2018-05-07T21:00:44.740Z,97328.08
2018-05-07T21:03:12.246Z,97325.04
2018-05-07T21:05:39.765Z,97322.12
2018-05-07T21:08:07.293Z,97324.04
2018-05-07T21:10:35.923Z,97323.02
2018-05-07T21:13:03.506Z,97324.92
2018-05-07T21:15:30.986Z,97330.59
2018-05-07T21:17:58.528Z,97323.92
2018-05-07T21:20:26.050Z,97324.62
2018-05-07T21:22:53.585Z,97325.01
2018-05-07T21:25:21.114Z,97324.81
2018-05-07T21:27:48.661Z,97324.27
2018-05-07T21:30:16.208Z,97322.16
2018-05-07T21:32:43.715Z,97327.30
2018-05-07T21:35:11.250Z,97325.06
2018-05-07T21:37:38.741Z,97330.02
2018-05-07T21:40:06.245Z,97330.66
2018-05-07T21:42:33.753Z,97331.00
2018-05-07T21:45:01.244Z,97331.16
2018-05-07T21:47:28.789Z,97334.24
2018-05-07T21:49:56.301Z,97338.54
2018-05-07T21:52:23.831Z,97342.72
2018-05-07T21:54:51.355Z,97334.85
2018-05-07T21:57:18.886Z,97342.50
2018-05-07T21:59:46.430Z,97337.14
2018-05-07T22:02:14.013Z,97340.91
2018-05-07T22:04:41.524Z,97342.22
2018-05-07T22:07:09.096Z,97344.28
2018-05-07T22:09:36.598Z,97346.81
2018-05-07T22:12:04.167Z,97339.87
2018-05-07T22:14:31.674Z,97339.92
2018-05-07T22:16:59.219Z,97336.44
2018-05-07T22:19:26.744Z,97335.41
2018-05-07T22:21:54.254Z,97341.80
2018-05-07T22:24:21.817Z,97337.21
2018-05-07T22:26:49.394Z,97344.08
2018-05-07T22:29:17.497Z,97348.20
2018-05-07T22:31:45.086Z,97340.18
2018-05-07T22:34:12.612Z,97345.86
2018-05-07T22:36:40.189Z,97339.72
2018-05-07T22:39:07.719Z,97342.27
2018-05-07T22:41:35.206Z,97335.62
2018-05-07T22:44:02.725Z,97338.41
2018-05-07T22:46:30.237Z,97342.27
2018-05-07T22:48:57.842Z,97343.22
2018-05-07T22:51:25.296Z,97342.11
2018-05-07T22:53:52.810Z,97345.50
2018-05-07T22:56:20.339Z,97339.38
2018-05-07T22:58:47.836Z,97338.28
2018-05-07T23:01:15.418Z,97331.83
2018-05-07T23:03:42.927Z,97331.02
2018-05-07T23:06:10.433Z,97326.92
2018-05-07T23:08:37.978Z,97321.08
2018-05-07T23:11:05.482Z,97319.48
2018-05-07T23:13:33.009Z,97325.01
2018-05-07T23:16:00.529Z,97321.03
2018-05-07T23:18:28.018Z,97318.95
2018-05-07T23:20:55.602Z,97321.25
2018-05-07T23:23:23.132Z,97321.55
2018-05-07T23:25:50.626Z,97310.83
2018-05-07T23:28:18.137Z,97317.98
2018-05-07T23:30:45.631Z,97322.89
2018-05-07T23:33:13.121Z,97321.61
2018-05-07T23:35:40.665Z,97319.30
2018-05-07T23:38:08.186Z,97313.20
2018-05-07T23:40:35.685Z,97311.20
2018-05-07T23:43:03.238Z,97312.84
2018-05-07T23:45:30.749Z,97321.89
2018-05-07T23:47:58.247Z,97316.80
2018-05-07T23:50:25.761Z,97320.70
2018-05-07T23:52:53.261Z,97319.95
2018-05-07T23:55:20.785Z,97312.38
2018-05-07T23:57:48.341Z,97313.83
